sensor_id;sensor_type;location;lat;lon;timestamp;pressure;altitude;pressure_sealevel;temperature;humidity
39309;BME280;26019;47.510;19.122;2023-02-11T00:00:21;102232.38;;;-3.47;100.00
39309;BME280;26019;47.510;19.122;2023-02-11T00:10:22;102214.97;;;-3.64;100.00
39309;BME280;26019;47.510;19.122;2023-02-11T00:20:24;102211.00;;;-3.40;100.00
39309;BME280;26019;47.510;19.122;2023-02-11T00:30:26;102214.06;;;-3.65;100.00
39309;BME280;26019;47.510;19.122;2023-02-11T00:40:28;102200.81;;;-3.72;100.00
39309;BME280;26019;47.510;19.122;2023-02-11T00:50:30;102200.28;;;-3.89;100.00
39309;BME280;26019;47.510;19.122;2023-02-11T01:00:31;102193.84;;;-3.96;100.00
39309;BME280;26019;47.510;19.122;2023-02-11T01:10:34;102173.25;;;-4.11;100.00
39309;BME280;26019;47.510;19.122;2023-02-11T01:20:36;102159.72;;;-4.11;100.00
39309;BME280;26019;47.510;19.122;2023-02-11T01:30:38;102145.69;;;-4.28;100.00
39309;BME280;26019;47.510;19.122;2023-02-11T01:40:46;102138.22;;;-4.37;100.00
39309;BME280;26019;47.510;19.122;2023-02-11T01:50:52;102145.94;;;-4.36;100.00
39309;BME280;26019;47.510;19.122;2023-02-11T02:00:55;102142.25;;;-4.39;100.00
39309;BME280;26019;47.510;19.122;2023-02-11T02:10:58;102141.63;;;-4.47;100.00
39309;BME280;26019;47.510;19.122;2023-02-11T02:41:42;102123.94;;;-4.68;100.00
39309;BME280;26019;47.510;19.122;2023-02-11T03:12:43;102108.78;;;-4.68;100.00
39309;BME280;26019;47.510;19.122;2023-02-11T03:33:27;102092.25;;;-5.14;100.00
39309;BME280;26019;47.510;19.122;2023-02-11T03:43:59;102076.88;;;-5.07;100.00
39309;BME280;26019;47.510;19.122;2023-02-11T03:54:10;102051.63;;;-5.17;100.00
39309;BME280;26019;47.510;19.122;2023-02-11T04:04:15;102046.06;;;-5.23;100.00
39309;BME280;26019;47.510;19.122;2023-02-11T04:14:17;102029.91;;;-5.36;100.00
39309;BME280;26019;47.510;19.122;2023-02-11T04:24:22;102014.03;;;-5.35;100.00
39309;BME280;26019;47.510;19.122;2023-02-11T04:34:25;102018.81;;;-5.28;100.00
39309;BME280;26019;47.510;19.122;2023-02-11T04:44:26;102017.84;;;-5.30;100.00
39309;BME280;26019;47.510;19.122;2023-02-11T04:54:29;102013.50;;;-5.41;100.00
39309;BME280;26019;47.510;19.122;2023-02-11T05:04:31;102030.06;;;-5.24;100.00
39309;BME280;26019;47.510;19.122;2023-02-11T05:14:33;102034.25;;;-5.44;100.00
39309;BME280;26019;47.510;19.122;2023-02-11T05:24:35;102029.84;;;-5.46;100.00
39309;BME280;26019;47.510;19.122;2023-02-11T05:34:37;102011.91;;;-5.60;100.00
39309;BME280;26019;47.510;19.122;2023-02-11T05:44:39;102006.31;;;-5.47;100.00
39309;BME280;26019;47.510;19.122;2023-02-11T05:54:47;102003.38;;;-5.51;100.00
39309;BME280;26019;47.510;19.122;2023-02-11T06:04:48;102006.63;;;-5.52;100.00
39309;BME280;26019;47.510;19.122;2023-02-11T06:14:50;102016.28;;;-5.38;100.00
39309;BME280;26019;47.510;19.122;2023-02-11T06:24:52;102008.13;;;-5.25;100.00
39309;BME280;26019;47.510;19.122;2023-02-11T06:35:02;102002.81;;;-4.78;100.00
39309;BME280;26019;47.510;19.122;2023-02-11T06:45:06;101998.88;;;-4.23;100.00
39309;BME280;26019;47.510;19.122;2023-02-11T06:55:10;101985.34;;;-4.13;100.00
39309;BME280;26019;47.510;19.122;2023-02-11T07:05:12;101978.59;;;-3.81;100.00
39309;BME280;26019;47.510;19.122;2023-02-11T07:15:14;101984.34;;;-3.72;100.00
39309;BME280;26019;47.510;19.122;2023-02-11T07:25:17;101984.41;;;-3.27;100.00
39309;BME280;26019;47.510;19.122;2023-02-11T07:35:18;101984.63;;;-2.22;100.00
39309;BME280;26019;47.510;19.122;2023-02-11T07:45:24;101982.53;;;-1.80;100.00
39309;BME280;26019;47.510;19.122;2023-02-11T07:55:26;101966.94;;;-1.49;100.00
39309;BME280;26019;47.510;19.122;2023-02-11T08:05:29;101953.84;;;-1.18;100.00
39309;BME280;26019;47.510;19.122;2023-02-11T08:15:31;101954.25;;;-0.86;100.00
39309;BME280;26019;47.510;19.122;2023-02-11T08:25:33;101958.84;;;-0.28;100.00
39309;BME280;26019;47.510;19.122;2023-02-11T08:35:36;101956.00;;;0.07;100.00
39309;BME280;26019;47.510;19.122;2023-02-11T08:45:40;101947.47;;;0.47;98.59
39309;BME280;26019;47.510;19.122;2023-02-11T08:55:53;101951.97;;;1.68;83.27
39309;BME280;26019;47.510;19.122;2023-02-11T09:05:56;101944.63;;;3.02;66.81
39309;BME280;26019;47.510;19.122;2023-02-11T09:16:00;101916.50;;;3.71;61.72
39309;BME280;26019;47.510;19.122;2023-02-11T09:26:07;101926.34;;;4.38;54.74
39309;BME280;26019;47.510;19.122;2023-02-11T09:36:20;101911.59;;;5.32;50.96
39309;BME280;26019;47.510;19.122;2023-02-11T09:46:26;101909.91;;;5.97;48.30
39309;BME280;26019;47.510;19.122;2023-02-11T09:56:32;101887.44;;;6.86;45.08
39309;BME280;26019;47.510;19.122;2023-02-11T10:06:38;101892.66;;;5.49;48.40
39309;BME280;26019;47.510;19.122;2023-02-11T10:26:50;101876.84;;;5.17;49.04
39309;BME280;26019;47.510;19.122;2023-02-11T10:36:53;101851.72;;;6.43;46.20
39309;BME280;26019;47.510;19.122;2023-02-11T10:46:56;101833.16;;;7.28;44.93
39309;BME280;26019;47.510;19.122;2023-02-11T10:57:00;101814.41;;;10.01;38.98
39309;BME280;26019;47.510;19.122;2023-02-11T11:07:15;101814.13;;;6.71;44.87
39309;BME280;26019;47.510;19.122;2023-02-11T11:17:18;101794.59;;;7.30;43.85
39309;BME280;26019;47.510;19.122;2023-02-11T11:27:23;101785.75;;;5.94;46.09
39309;BME280;26019;47.510;19.122;2023-02-11T11:37:31;101770.13;;;7.43;43.26
39309;BME280;26019;47.510;19.122;2023-02-11T11:47:47;101746.13;;;8.03;40.79
39309;BME280;26019;47.510;19.122;2023-02-11T11:57:52;101729.00;;;6.61;43.46
39309;BME280;26019;47.510;19.122;2023-02-11T12:39:54;101651.34;;;7.26;40.16
39309;BME280;26019;47.510;19.122;2023-02-11T13:01:23;101628.91;;;11.53;31.87
39309;BME280;26019;47.510;19.122;2023-02-11T13:11:25;101622.59;;;13.87;26.37
39309;BME280;26019;47.510;19.122;2023-02-11T13:21:35;101608.44;;;11.77;29.01
39309;BME280;26019;47.510;19.122;2023-02-11T13:31:52;101582.44;;;7.44;35.23
39309;BME280;26019;47.510;19.122;2023-02-11T13:42:02;101570.06;;;7.00;36.43
39309;BME280;26019;47.510;19.122;2023-02-11T14:13:05;101581.47;;;6.52;39.18
39309;BME280;26019;47.510;19.122;2023-02-11T14:23:20;101569.56;;;6.83;38.33
39309;BME280;26019;47.510;19.122;2023-02-11T14:44:15;101600.16;;;6.76;39.63
39309;BME280;26019;47.510;19.122;2023-02-11T14:54:22;101577.34;;;6.85;39.81
39309;BME280;26019;47.510;19.122;2023-02-11T15:04:33;101562.28;;;7.29;39.13
39309;BME280;26019;47.510;19.122;2023-02-11T15:14:39;101541.63;;;6.65;40.49
39309;BME280;26019;47.510;19.122;2023-02-11T15:24:41;101537.66;;;6.19;41.63
39309;BME280;26019;47.510;19.122;2023-02-11T15:34:47;101538.94;;;6.33;41.81
39309;BME280;26019;47.510;19.122;2023-02-11T15:55:34;101527.56;;;5.72;44.35
39309;BME280;26019;47.510;19.122;2023-02-11T16:05:38;101514.38;;;5.61;44.71
39309;BME280;26019;47.510;19.122;2023-02-11T16:15:49;101491.66;;;5.46;45.26
39309;BME280;26019;47.510;19.122;2023-02-11T16:26:26;101487.72;;;5.30;46.56
39309;BME280;26019;47.510;19.122;2023-02-11T16:36:26;101481.16;;;5.14;46.89
39309;BME280;26019;47.510;19.122;2023-02-11T16:46:30;101499.00;;;5.11;47.73
39309;BME280;26019;47.510;19.122;2023-02-11T16:56:33;101482.16;;;4.93;48.42
39309;BME280;26019;47.510;19.122;2023-02-11T17:06:35;101496.31;;;4.83;49.03
39309;BME280;26019;47.510;19.122;2023-02-11T17:16:39;101498.22;;;4.89;50.05
39309;BME280;26019;47.510;19.122;2023-02-11T17:26:46;101506.34;;;4.77;49.65
39309;BME280;26019;47.510;19.122;2023-02-11T17:36:49;101498.75;;;4.80;50.63
39309;BME280;26019;47.510;19.122;2023-02-11T17:46:53;101505.28;;;4.72;51.11
39309;BME280;26019;47.510;19.122;2023-02-11T17:56:57;101486.78;;;4.79;53.34
39309;BME280;26019;47.510;19.122;2023-02-11T18:06:59;101468.72;;;4.76;52.01
39309;BME280;26019;47.510;19.122;2023-02-11T18:17:02;101469.53;;;4.75;53.68
39309;BME280;26019;47.510;19.122;2023-02-11T18:27:05;101462.75;;;4.75;53.80
39309;BME280;26019;47.510;19.122;2023-02-11T18:37:11;101463.59;;;4.76;54.51
39309;BME280;26019;47.510;19.122;2023-02-11T18:47:17;101458.63;;;4.81;53.76
39309;BME280;26019;47.510;19.122;2023-02-11T18:57:20;101462.63;;;4.72;53.85
39309;BME280;26019;47.510;19.122;2023-02-11T19:07:22;101470.53;;;4.78;53.71
39309;BME280;26019;47.510;19.122;2023-02-11T19:17:32;101476.41;;;4.76;53.52
39309;BME280;26019;47.510;19.122;2023-02-11T19:27:34;101477.22;;;4.75;55.18
39309;BME280;26019;47.510;19.122;2023-02-11T19:37:42;101477.78;;;4.90;56.09
39309;BME280;26019;47.510;19.122;2023-02-11T19:47:47;101479.66;;;4.72;55.20
39309;BME280;26019;47.510;19.122;2023-02-11T19:57:50;101469.69;;;4.55;57.11
39309;BME280;26019;47.510;19.122;2023-02-11T20:07:54;101472.19;;;4.54;57.01
39309;BME280;26019;47.510;19.122;2023-02-11T20:17:57;101466.44;;;4.59;59.12
39309;BME280;26019;47.510;19.122;2023-02-11T20:28:01;101467.75;;;4.49;60.61
39309;BME280;26019;47.510;19.122;2023-02-11T20:38:05;101454.88;;;4.46;63.14
39309;BME280;26019;47.510;19.122;2023-02-11T20:48:09;101448.00;;;4.45;64.28
39309;BME280;26019;47.510;19.122;2023-02-11T20:58:13;101453.06;;;4.44;68.46
39309;BME280;26019;47.510;19.122;2023-02-11T21:08:22;101436.66;;;4.39;77.81
39309;BME280;26019;47.510;19.122;2023-02-11T21:18:24;101439.16;;;4.37;84.83
39309;BME280;26019;47.510;19.122;2023-02-11T21:28:27;101442.34;;;4.31;89.81
39309;BME280;26019;47.510;19.122;2023-02-11T21:38:33;101420.19;;;4.32;93.74
39309;BME280;26019;47.510;19.122;2023-02-11T21:48:37;101415.72;;;4.26;93.97
39309;BME280;26019;47.510;19.122;2023-02-11T21:58:40;101423.19;;;4.20;97.20
39309;BME280;26019;47.510;19.122;2023-02-11T22:08:46;101426.47;;;3.95;100.00
39309;BME280;26019;47.510;19.122;2023-02-11T22:18:49;101404.72;;;3.83;100.00
39309;BME280;26019;47.510;19.122;2023-02-11T22:28:52;101426.69;;;3.78;100.00
39309;BME280;26019;47.510;19.122;2023-02-11T22:39:03;101437.19;;;3.63;100.00
39309;BME280;26019;47.510;19.122;2023-02-11T22:49:06;101428.91;;;3.49;100.00
39309;BME280;26019;47.510;19.122;2023-02-11T22:59:11;101460.22;;;3.43;100.00
39309;BME280;26019;47.510;19.122;2023-02-11T23:09:13;101455.41;;;3.51;100.00
39309;BME280;26019;47.510;19.122;2023-02-11T23:19:17;101450.25;;;3.50;100.00
39309;BME280;26019;47.510;19.122;2023-02-11T23:29:19;101451.22;;;3.32;100.00
39309;BME280;26019;47.510;19.122;2023-02-11T23:39:22;101432.78;;;3.39;100.00
39309;BME280;26019;47.510;19.122;2023-02-11T23:49:24;101426.13;;;3.43;100.00
39309;BME280;26019;47.510;19.122;2023-02-11T23:59:26;101424.44;;;3.43;100.00
